sensor_id;sensor_type;location;lat;lon;timestamp;pressure;altitude;pressure_sealevel;temperature;humidity
7182;BME280;3632;42.724;23.298;2023-08-24T00:00:22;95424.91;;;24.60;69.07
7182;BME280;3632;42.724;23.298;2023-08-24T00:02:49;95465.81;;;24.86;69.20
7182;BME280;3632;42.724;23.298;2023-08-24T00:05:15;95460.16;;;24.82;69.29
7182;BME280;3632;42.724;23.298;2023-08-24T00:07:42;95438.31;;;24.57;69.55
7182;BME280;3632;42.724;23.298;2023-08-24T00:10:09;95476.41;;;24.91;69.14
7182;BME280;3632;42.724;23.298;2023-08-24T00:12:36;95431.94;;;24.46;69.93
7182;BME280;3632;42.724;23.298;2023-08-24T00:15:07;95483.44;;;24.38;71.55
7182;BME280;3632;42.724;23.298;2023-08-24T00:17:34;95468.00;;;24.30;72.08
7182;BME280;3632;42.724;23.298;2023-08-24T00:20:01;95467.00;;;24.24;72.08
7182;BME280;3632;42.724;23.298;2023-08-24T00:22:29;95470.59;;;24.30;72.13
7182;BME280;3632;42.724;23.298;2023-08-24T00:24:56;95457.78;;;24.22;71.93
7182;BME280;3632;42.724;23.298;2023-08-24T00:27:23;95454.78;;;24.51;71.57
7182;BME280;3632;42.724;23.298;2023-08-24T00:29:50;95348.84;;;23.32;71.39
7182;BME280;3632;42.724;23.298;2023-08-24T00:32:18;95467.63;;;24.52;71.21
7182;BME280;3632;42.724;23.298;2023-08-24T00:34:45;95476.03;;;24.48;71.66
7182;BME280;3632;42.724;23.298;2023-08-24T00:37:11;95389.59;;;23.85;71.80
7182;BME280;3632;42.724;23.298;2023-08-24T00:39:38;95474.63;;;24.45;71.23
7182;BME280;3632;42.724;23.298;2023-08-24T00:42:06;95480.59;;;24.20;72.96
7182;BME280;3632;42.724;23.298;2023-08-24T00:44:33;95472.91;;;23.85;74.79
7182;BME280;3632;42.724;23.298;2023-08-24T00:47:00;95467.69;;;23.79;75.75
7182;BME280;3632;42.724;23.298;2023-08-24T00:49:28;95469.09;;;23.81;75.56
7182;BME280;3632;42.724;23.298;2023-08-24T00:51:55;95477.69;;;23.75;75.78
7182;BME280;3632;42.724;23.298;2023-08-24T00:54:22;95477.34;;;23.91;75.21
7182;BME280;3632;42.724;23.298;2023-08-24T00:56:49;95472.97;;;24.05;74.29
7182;BME280;3632;42.724;23.298;2023-08-24T00:59:16;95471.16;;;24.12;73.43
7182;BME280;3632;42.724;23.298;2023-08-24T01:01:45;95474.81;;;24.18;72.98
7182;BME280;3632;42.724;23.298;2023-08-24T01:04:13;95492.47;;;23.68;72.49
7182;BME280;3632;42.724;23.298;2023-08-24T01:06:41;95481.38;;;24.00;72.28
7182;BME280;3632;42.724;23.298;2023-08-24T01:09:08;95474.91;;;23.90;73.37
7182;BME280;3632;42.724;23.298;2023-08-24T01:11:45;95286.75;;;22.48;74.62
7182;BME280;3632;42.724;23.298;2023-08-24T01:14:21;95472.81;;;23.52;75.93
7182;BME280;3632;42.724;23.298;2023-08-24T01:16:51;95469.28;;;23.66;75.04
7182;BME280;3632;42.724;23.298;2023-08-24T01:19:34;95399.97;;;23.46;74.33
7182;BME280;3632;42.724;23.298;2023-08-24T01:22:07;95453.72;;;23.93;72.37
7182;BME280;3632;42.724;23.298;2023-08-24T01:24:39;95419.41;;;23.70;71.92
7182;BME280;3632;42.724;23.298;2023-08-24T01:27:08;95468.13;;;23.89;72.70
7182;BME280;3632;42.724;23.298;2023-08-24T01:29:37;95415.09;;;23.29;74.84
7182;BME280;3632;42.724;23.298;2023-08-24T01:32:09;95461.59;;;23.45;76.34
7182;BME280;3632;42.724;23.298;2023-08-24T01:34:37;95474.38;;;23.47;76.16
7182;BME280;3632;42.724;23.298;2023-08-24T01:37:04;95225.22;;;21.80;75.97
7182;BME280;3632;42.724;23.298;2023-08-24T01:39:36;95472.53;;;23.41;75.68
7182;BME280;3632;42.724;23.298;2023-08-24T01:42:11;95300.03;;;21.98;75.95
7182;BME280;3632;42.724;23.298;2023-08-24T01:44:47;95188.44;;;21.14;77.44
7182;BME280;3632;42.724;23.298;2023-08-24T01:47:16;95477.44;;;23.16;78.24
7182;BME280;3632;42.724;23.298;2023-08-24T01:49:44;95483.06;;;23.26;77.16
7182;BME280;3632;42.724;23.298;2023-08-24T01:52:12;95486.22;;;23.15;77.63
7182;BME280;3632;42.724;23.298;2023-08-24T01:54:39;95436.28;;;22.85;78.04
7182;BME280;3632;42.724;23.298;2023-08-24T01:57:08;95407.25;;;22.54;77.56
7182;BME280;3632;42.724;23.298;2023-08-24T01:59:34;95418.19;;;22.43;77.36
7182;BME280;3632;42.724;23.298;2023-08-24T02:02:01;95479.41;;;23.07;78.20
7182;BME280;3632;42.724;23.298;2023-08-24T02:04:28;95086.03;;;20.55;76.64
7182;BME280;3632;42.724;23.298;2023-08-24T02:06:55;95269.63;;;21.92;76.37
7182;BME280;3632;42.724;23.298;2023-08-24T02:09:21;95436.34;;;22.98;77.05
7182;BME280;3632;42.724;23.298;2023-08-24T02:11:48;95333.84;;;21.62;77.63
7182;BME280;3632;42.724;23.298;2023-08-24T02:14:16;95335.31;;;21.71;77.96
7182;BME280;3632;42.724;23.298;2023-08-24T02:16:43;95481.13;;;23.00;78.47
7182;BME280;3632;42.724;23.298;2023-08-24T02:19:11;95488.91;;;22.94;78.96
7182;BME280;3632;42.724;23.298;2023-08-24T02:21:37;95490.88;;;22.92;78.72
7182;BME280;3632;42.724;23.298;2023-08-24T02:24:05;95514.63;;;22.82;79.59
7182;BME280;3632;42.724;23.298;2023-08-24T02:26:32;95486.47;;;22.86;79.07
7182;BME280;3632;42.724;23.298;2023-08-24T02:28:59;95492.06;;;22.89;78.01
7182;BME280;3632;42.724;23.298;2023-08-24T02:31:27;95286.50;;;21.53;77.70
7182;BME280;3632;42.724;23.298;2023-08-24T02:33:54;95223.84;;;21.28;77.56
7182;BME280;3632;42.724;23.298;2023-08-24T02:36:21;95252.53;;;21.27;78.47
7182;BME280;3632;42.724;23.298;2023-08-24T02:38:48;95465.53;;;22.66;78.45
7182;BME280;3632;42.724;23.298;2023-08-24T02:41:15;95157.94;;;20.52;78.19
7182;BME280;3632;42.724;23.298;2023-08-24T02:43:42;95392.34;;;22.35;77.69
7182;BME280;3632;42.724;23.298;2023-08-24T02:46:09;95470.94;;;22.99;76.84
7182;BME280;3632;42.724;23.298;2023-08-24T02:48:37;95464.03;;;23.12;76.19
7182;BME280;3632;42.724;23.298;2023-08-24T02:51:04;95441.53;;;22.98;75.92
7182;BME280;3632;42.724;23.298;2023-08-24T02:53:31;95072.09;;;20.77;75.64
7182;BME280;3632;42.724;23.298;2023-08-24T02:55:58;95479.13;;;23.37;75.45
7182;BME280;3632;42.724;23.298;2023-08-24T02:58:25;95503.06;;;23.19;75.42
7182;BME280;3632;42.724;23.298;2023-08-24T03:00:52;95484.59;;;23.07;76.56
7182;BME280;3632;42.724;23.298;2023-08-24T03:03:19;95400.69;;;22.58;76.59
7182;BME280;3632;42.724;23.298;2023-08-24T03:05:57;95404.44;;;22.76;75.99
7182;BME280;3632;42.724;23.298;2023-08-24T03:08:25;95485.41;;;23.14;76.22
7182;BME280;3632;42.724;23.298;2023-08-24T03:10:52;95486.13;;;22.95;77.29
7182;BME280;3632;42.724;23.298;2023-08-24T03:13:19;95486.69;;;22.91;78.33
7182;BME280;3632;42.724;23.298;2023-08-24T03:15:45;95476.16;;;22.71;78.97
7182;BME280;3632;42.724;23.298;2023-08-24T03:18:13;95505.16;;;23.02;77.92
7182;BME280;3632;42.724;23.298;2023-08-24T03:20:40;95526.94;;;23.01;77.29
7182;BME280;3632;42.724;23.298;2023-08-24T03:23:08;95502.66;;;22.66;79.42
7182;BME280;3632;42.724;23.298;2023-08-24T03:25:36;95500.28;;;22.65;80.24
7182;BME280;3632;42.724;23.298;2023-08-24T03:28:04;95500.78;;;22.54;81.18
7182;BME280;3632;42.724;23.298;2023-08-24T03:30:31;95462.34;;;22.43;80.93
7182;BME280;3632;42.724;23.298;2023-08-24T03:32:57;95501.22;;;22.79;79.70
7182;BME280;3632;42.724;23.298;2023-08-24T03:35:24;95390.50;;;22.28;78.43
7182;BME280;3632;42.724;23.298;2023-08-24T03:37:51;95502.44;;;23.17;78.37
7182;BME280;3632;42.724;23.298;2023-08-24T03:40:19;95508.16;;;22.99;78.90
7182;BME280;3632;42.724;23.298;2023-08-24T03:42:46;95529.03;;;22.63;81.00
7182;BME280;3632;42.724;23.298;2023-08-24T03:45:13;95479.59;;;22.29;81.56
7182;BME280;3632;42.724;23.298;2023-08-24T03:47:40;95255.50;;;20.88;81.53
7182;BME280;3632;42.724;23.298;2023-08-24T03:50:07;95522.56;;;22.53;81.86
7182;BME280;3632;42.724;23.298;2023-08-24T03:52:34;95297.97;;;20.87;80.63
7182;BME280;3632;42.724;23.298;2023-08-24T03:55:01;95234.53;;;20.62;79.24
7182;BME280;3632;42.724;23.298;2023-08-24T03:57:30;95525.22;;;22.38;79.42
7182;BME280;3632;42.724;23.298;2023-08-24T03:59:57;95522.47;;;22.40;79.19
7182;BME280;3632;42.724;23.298;2023-08-24T04:02:24;95526.03;;;22.39;79.31
7182;BME280;3632;42.724;23.298;2023-08-24T04:04:52;95528.78;;;22.58;78.59
7182;BME280;3632;42.724;23.298;2023-08-24T04:07:19;95522.69;;;22.66;77.37
7182;BME280;3632;42.724;23.298;2023-08-24T04:09:45;95516.69;;;22.65;77.65
7182;BME280;3632;42.724;23.298;2023-08-24T04:12:12;95525.31;;;22.45;79.07
7182;BME280;3632;42.724;23.298;2023-08-24T04:14:40;95517.00;;;22.56;78.97
7182;BME280;3632;42.724;23.298;2023-08-24T04:17:07;95437.94;;;21.95;79.13
7182;BME280;3632;42.724;23.298;2023-08-24T04:19:35;95511.16;;;22.54;79.01
7182;BME280;3632;42.724;23.298;2023-08-24T04:22:04;95476.69;;;22.39;77.89
7182;BME280;3632;42.724;23.298;2023-08-24T04:24:30;95530.22;;;22.82;78.01
7182;BME280;3632;42.724;23.298;2023-08-24T04:26:57;95541.69;;;22.94;77.24
7182;BME280;3632;42.724;23.298;2023-08-24T04:29:24;95536.53;;;23.01;76.49
7182;BME280;3632;42.724;23.298;2023-08-24T04:31:52;95530.81;;;22.84;77.29
7182;BME280;3632;42.724;23.298;2023-08-24T04:34:19;95267.78;;;21.15;78.08
7182;BME280;3632;42.724;23.298;2023-08-24T04:36:45;95475.91;;;22.66;77.66
7182;BME280;3632;42.724;23.298;2023-08-24T04:39:12;95511.72;;;22.70;77.37
7182;BME280;3632;42.724;23.298;2023-08-24T04:41:39;95314.44;;;21.15;76.63
7182;BME280;3632;42.724;23.298;2023-08-24T04:44:06;95454.41;;;22.23;77.78
7182;BME280;3632;42.724;23.298;2023-08-24T04:46:33;95523.13;;;22.48;79.83
7182;BME280;3632;42.724;23.298;2023-08-24T04:49:01;95467.31;;;22.16;80.75
7182;BME280;3632;42.724;23.298;2023-08-24T04:51:28;95520.69;;;22.68;79.21
7182;BME280;3632;42.724;23.298;2023-08-24T04:53:55;95522.44;;;22.82;78.48
7182;BME280;3632;42.724;23.298;2023-08-24T04:56:22;95450.53;;;22.40;78.76
7182;BME280;3632;42.724;23.298;2023-08-24T04:58:53;95463.84;;;22.09;79.91
7182;BME280;3632;42.724;23.298;2023-08-24T05:01:20;95151.75;;;20.32;79.56
7182;BME280;3632;42.724;23.298;2023-08-24T05:03:47;95339.28;;;21.67;78.42
7182;BME280;3632;42.724;23.298;2023-08-24T05:06:15;95551.56;;;23.05;78.00
7182;BME280;3632;42.724;23.298;2023-08-24T05:08:42;95539.34;;;22.99;78.15
7182;BME280;3632;42.724;23.298;2023-08-24T05:11:12;95543.66;;;22.92;78.65
7182;BME280;3632;42.724;23.298;2023-08-24T05:13:39;95572.41;;;22.84;78.74
7182;BME280;3632;42.724;23.298;2023-08-24T05:16:06;95460.97;;;21.98;79.93
7182;BME280;3632;42.724;23.298;2023-08-24T05:18:34;95542.31;;;22.96;80.70
7182;BME280;3632;42.724;23.298;2023-08-24T05:21:01;95548.66;;;23.21;78.45
7182;BME280;3632;42.724;23.298;2023-08-24T05:23:30;95317.03;;;21.79;78.12
7182;BME280;3632;42.724;23.298;2023-08-24T05:26:01;95553.88;;;23.21;77.67
7182;BME280;3632;42.724;23.298;2023-08-24T05:28:29;95551.31;;;23.28;77.51
7182;BME280;3632;42.724;23.298;2023-08-24T05:30:57;95383.13;;;22.04;75.01
7182;BME280;3632;42.724;23.298;2023-08-24T05:33:24;95568.56;;;23.70;73.68
7182;BME280;3632;42.724;23.298;2023-08-24T05:35:51;95383.63;;;22.14;72.88
7182;BME280;3632;42.724;23.298;2023-08-24T05:38:18;95175.56;;;21.06;72.83
7182;BME280;3632;42.724;23.298;2023-08-24T05:40:48;95561.69;;;23.56;74.61
7182;BME280;3632;42.724;23.298;2023-08-24T05:43:15;95559.78;;;23.78;73.67
7182;BME280;3632;42.724;23.298;2023-08-24T05:45:42;95509.06;;;23.54;72.83
7182;BME280;3632;42.724;23.298;2023-08-24T05:48:10;95563.47;;;23.96;71.73
7182;BME280;3632;42.724;23.298;2023-08-24T05:50:40;95568.97;;;24.21;71.66
7182;BME280;3632;42.724;23.298;2023-08-24T05:53:08;95566.59;;;24.33;70.54
7182;BME280;3632;42.724;23.298;2023-08-24T05:55:35;95560.97;;;24.36;70.20
7182;BME280;3632;42.724;23.298;2023-08-24T05:58:03;95502.97;;;23.88;69.51
7182;BME280;3632;42.724;23.298;2023-08-24T06:00:30;95563.81;;;23.80;70.62
7182;BME280;3632;42.724;23.298;2023-08-24T06:02:57;95562.00;;;24.35;69.85
7182;BME280;3632;42.724;23.298;2023-08-24T06:05:23;95568.81;;;24.49;68.95
7182;BME280;3632;42.724;23.298;2023-08-24T06:07:51;95573.34;;;24.14;69.96
7182;BME280;3632;42.724;23.298;2023-08-24T06:10:20;95519.13;;;23.70;70.42
7182;BME280;3632;42.724;23.298;2023-08-24T06:12:47;95572.03;;;24.57;69.55
7182;BME280;3632;42.724;23.298;2023-08-24T06:15:15;95414.03;;;23.71;68.74
7182;BME280;3632;42.724;23.298;2023-08-24T06:17:44;95510.06;;;24.20;68.72
7182;BME280;3632;42.724;23.298;2023-08-24T06:20:13;95559.25;;;24.69;68.37
7182;BME280;3632;42.724;23.298;2023-08-24T06:22:40;95605.97;;;24.77;67.59
7182;BME280;3632;42.724;23.298;2023-08-24T06:25:08;95308.59;;;23.08;67.67
7182;BME280;3632;42.724;23.298;2023-08-24T06:27:35;95506.81;;;24.11;69.05
7182;BME280;3632;42.724;23.298;2023-08-24T06:30:03;95536.75;;;24.55;67.62
7182;BME280;3632;42.724;23.298;2023-08-24T06:32:31;95559.59;;;24.53;68.01
7182;BME280;3632;42.724;23.298;2023-08-24T06:34:58;95595.63;;;24.23;68.67
7182;BME280;3632;42.724;23.298;2023-08-24T06:37:25;95577.69;;;24.68;68.71
7182;BME280;3632;42.724;23.298;2023-08-24T06:39:52;95521.53;;;24.52;67.08
7182;BME280;3632;42.724;23.298;2023-08-24T06:42:19;95587.28;;;24.67;67.26
7182;BME280;3632;42.724;23.298;2023-08-24T06:44:46;95416.84;;;23.76;67.10
7182;BME280;3632;42.724;23.298;2023-08-24T06:47:15;95574.88;;;24.76;66.21
7182;BME280;3632;42.724;23.298;2023-08-24T06:49:43;95541.59;;;24.97;65.84
7182;BME280;3632;42.724;23.298;2023-08-24T06:52:10;95560.63;;;25.24;65.52
7182;BME280;3632;42.724;23.298;2023-08-24T06:54:37;95563.22;;;25.37;65.34
7182;BME280;3632;42.724;23.298;2023-08-24T06:57:04;95558.38;;;25.34;65.74
7182;BME280;3632;42.724;23.298;2023-08-24T06:59:30;95552.72;;;25.64;65.05
7182;BME280;3632;42.724;23.298;2023-08-24T07:01:57;95269.06;;;23.65;63.18
7182;BME280;3632;42.724;23.298;2023-08-24T07:04:25;95555.84;;;25.85;61.97
7182;BME280;3632;42.724;23.298;2023-08-24T07:06:53;95549.38;;;25.95;61.04
7182;BME280;3632;42.724;23.298;2023-08-24T07:09:20;95473.09;;;25.35;61.58
7182;BME280;3632;42.724;23.298;2023-08-24T07:11:47;95537.19;;;25.82;61.26
7182;BME280;3632;42.724;23.298;2023-08-24T07:14:13;95555.53;;;26.13;60.53
7182;BME280;3632;42.724;23.298;2023-08-24T07:16:40;95487.31;;;25.90;59.50
7182;BME280;3632;42.724;23.298;2023-08-24T07:19:07;95477.88;;;25.89;59.04
7182;BME280;3632;42.724;23.298;2023-08-24T07:21:35;95276.50;;;24.72;58.74
7182;BME280;3632;42.724;23.298;2023-08-24T07:24:04;95540.00;;;26.56;58.04
7182;BME280;3632;42.724;23.298;2023-08-24T07:26:31;95545.09;;;26.69;58.15
7182;BME280;3632;42.724;23.298;2023-08-24T07:28:58;95542.94;;;26.66;58.33
7182;BME280;3632;42.724;23.298;2023-08-24T07:31:25;95532.84;;;26.70;58.23
7182;BME280;3632;42.724;23.298;2023-08-24T07:33:51;95536.59;;;26.80;57.63
7182;BME280;3632;42.724;23.298;2023-08-24T07:36:18;95401.16;;;25.59;57.04
7182;BME280;3632;42.724;23.298;2023-08-24T07:38:45;95540.03;;;27.06;56.20
7182;BME280;3632;42.724;23.298;2023-08-24T07:41:14;95459.56;;;26.76;56.01
7182;BME280;3632;42.724;23.298;2023-08-24T07:43:43;95532.63;;;27.39;54.91
7182;BME280;3632;42.724;23.298;2023-08-24T07:46:10;95538.22;;;27.43;54.92
7182;BME280;3632;42.724;23.298;2023-08-24T07:48:38;95505.41;;;27.04;54.38
7182;BME280;3632;42.724;23.298;2023-08-24T07:51:05;95452.66;;;27.25;53.41
7182;BME280;3632;42.724;23.298;2023-08-24T07:53:32;95546.81;;;27.86;53.11
7182;BME280;3632;42.724;23.298;2023-08-24T07:56:00;95533.94;;;27.85;53.30
7182;BME280;3632;42.724;23.298;2023-08-24T07:58:28;95523.06;;;27.69;53.14
7182;BME280;3632;42.724;23.298;2023-08-24T08:00:56;95393.59;;;26.56;53.37
7182;BME280;3632;42.724;23.298;2023-08-24T08:03:23;95498.78;;;27.62;53.14
7182;BME280;3632;42.724;23.298;2023-08-24T08:05:50;95533.88;;;27.91;53.61
7182;BME280;3632;42.724;23.298;2023-08-24T08:08:17;95414.94;;;27.14;53.91
7182;BME280;3632;42.724;23.298;2023-08-24T08:10:44;95525.13;;;28.27;53.64
7182;BME280;3632;42.724;23.298;2023-08-24T08:13:11;95524.50;;;28.43;53.28
7182;BME280;3632;42.724;23.298;2023-08-24T08:15:39;95523.50;;;28.56;52.28
7182;BME280;3632;42.724;23.298;2023-08-24T08:18:06;95308.75;;;27.37;51.23
7182;BME280;3632;42.724;23.298;2023-08-24T08:20:33;95523.81;;;28.89;51.13
7182;BME280;3632;42.724;23.298;2023-08-24T08:22:59;95516.84;;;28.95;50.64
7182;BME280;3632;42.724;23.298;2023-08-24T08:25:26;95517.19;;;29.10;50.24
7182;BME280;3632;42.724;23.298;2023-08-24T08:27:53;95512.50;;;29.24;49.18
7182;BME280;3632;42.724;23.298;2023-08-24T08:30:20;95488.97;;;29.17;48.53
7182;BME280;3632;42.724;23.298;2023-08-24T08:32:51;95484.66;;;29.23;47.76
7182;BME280;3632;42.724;23.298;2023-08-24T08:35:23;95565.44;;;29.21;47.72
7182;BME280;3632;42.724;23.298;2023-08-24T08:37:50;95490.94;;;29.10;47.60
7182;BME280;3632;42.724;23.298;2023-08-24T08:40:21;95507.00;;;29.48;47.27
7182;BME280;3632;42.724;23.298;2023-08-24T08:42:50;95500.13;;;29.59;47.27
7182;BME280;3632;42.724;23.298;2023-08-24T08:45:18;95493.91;;;29.77;46.82
7182;BME280;3632;42.724;23.298;2023-08-24T08:47:53;95446.72;;;29.42;46.58
7182;BME280;3632;42.724;23.298;2023-08-24T08:50:22;95490.47;;;30.16;46.20
7182;BME280;3632;42.724;23.298;2023-08-24T08:52:49;95446.34;;;29.90;46.51
7182;BME280;3632;42.724;23.298;2023-08-24T08:55:17;95482.19;;;30.24;46.52
7182;BME280;3632;42.724;23.298;2023-08-24T08:57:44;95506.34;;;30.38;45.49
7182;BME280;3632;42.724;23.298;2023-08-24T09:00:13;95476.03;;;30.35;45.39
7182;BME280;3632;42.724;23.298;2023-08-24T09:02:44;95479.59;;;30.58;45.05
7182;BME280;3632;42.724;23.298;2023-08-24T09:05:16;95473.53;;;30.74;45.44
7182;BME280;3632;42.724;23.298;2023-08-24T09:07:48;95277.31;;;29.39;45.34
7182;BME280;3632;42.724;23.298;2023-08-24T09:10:15;95467.31;;;30.80;45.81
7182;BME280;3632;42.724;23.298;2023-08-24T09:12:42;95418.56;;;30.77;45.14
7182;BME280;3632;42.724;23.298;2023-08-24T09:15:10;95484.97;;;31.18;44.45
7182;BME280;3632;42.724;23.298;2023-08-24T09:17:42;95452.34;;;31.41;44.23
7182;BME280;3632;42.724;23.298;2023-08-24T09:20:10;95446.28;;;31.62;44.22
7182;BME280;3632;42.724;23.298;2023-08-24T09:22:43;95318.09;;;30.42;43.41
7182;BME280;3632;42.724;23.298;2023-08-24T09:25:10;95449.03;;;31.72;43.50
7182;BME280;3632;42.724;23.298;2023-08-24T09:27:37;95438.69;;;31.92;43.23
7182;BME280;3632;42.724;23.298;2023-08-24T09:30:05;95443.84;;;32.04;42.93
7182;BME280;3632;42.724;23.298;2023-08-24T09:32:32;95433.72;;;32.23;43.85
7182;BME280;3632;42.724;23.298;2023-08-24T09:35:02;95431.53;;;32.41;42.69
7182;BME280;3632;42.724;23.298;2023-08-24T09:37:32;95192.00;;;30.79;41.82
7182;BME280;3632;42.724;23.298;2023-08-24T09:40:03;95425.19;;;32.74;41.41
7182;BME280;3632;42.724;23.298;2023-08-24T09:42:37;95425.38;;;33.10;41.92
7182;BME280;3632;42.724;23.298;2023-08-24T09:45:05;95423.88;;;33.24;40.71
7182;BME280;3632;42.724;23.298;2023-08-24T09:47:33;95418.09;;;33.37;40.83
7182;BME280;3632;42.724;23.298;2023-08-24T09:50:00;95412.69;;;33.69;40.43
7182;BME280;3632;42.724;23.298;2023-08-24T09:52:30;95409.78;;;33.75;40.57
7182;BME280;3632;42.724;23.298;2023-08-24T09:54:59;95400.56;;;33.78;39.67
7182;BME280;3632;42.724;23.298;2023-08-24T09:57:32;95398.19;;;33.91;38.81
7182;BME280;3632;42.724;23.298;2023-08-24T10:00:05;95400.06;;;34.06;38.82
7182;BME280;3632;42.724;23.298;2023-08-24T10:02:36;95398.50;;;34.25;38.70
7182;BME280;3632;42.724;23.298;2023-08-24T10:05:05;95395.06;;;34.45;37.69
7182;BME280;3632;42.724;23.298;2023-08-24T10:07:35;95391.31;;;34.61;37.57
7182;BME280;3632;42.724;23.298;2023-08-24T10:10:08;95393.44;;;34.69;37.08
7182;BME280;3632;42.724;23.298;2023-08-24T10:12:44;95392.16;;;34.67;36.87
7182;BME280;3632;42.724;23.298;2023-08-24T10:15:14;95261.19;;;33.78;36.70
7182;BME280;3632;42.724;23.298;2023-08-24T10:17:42;95233.69;;;33.39;36.28
7182;BME280;3632;42.724;23.298;2023-08-24T10:20:09;95387.28;;;35.04;36.51
7182;BME280;3632;42.724;23.298;2023-08-24T10:22:37;95386.88;;;35.41;36.51
7182;BME280;3632;42.724;23.298;2023-08-24T10:25:07;95396.06;;;35.64;36.15
7182;BME280;3632;42.724;23.298;2023-08-24T10:27:35;95390.38;;;35.26;35.22
7182;BME280;3632;42.724;23.298;2023-08-24T10:30:04;95249.56;;;33.94;36.27
7182;BME280;3632;42.724;23.298;2023-08-24T10:32:31;95050.56;;;32.68;36.40
7182;BME280;3632;42.724;23.298;2023-08-24T10:34:58;95412.53;;;34.36;36.67
7182;BME280;3632;42.724;23.298;2023-08-24T10:37:26;95319.09;;;33.80;36.92
7182;BME280;3632;42.724;23.298;2023-08-24T10:39:54;95285.69;;;33.18;38.02
7182;BME280;3632;42.724;23.298;2023-08-24T10:42:20;95380.41;;;33.57;37.99
7182;BME280;3632;42.724;23.298;2023-08-24T10:44:47;95335.09;;;33.18;37.97
7182;BME280;3632;42.724;23.298;2023-08-24T10:47:19;95381.06;;;33.17;39.81
7182;BME280;3632;42.724;23.298;2023-08-24T10:49:58;95217.63;;;31.69;40.36
7182;BME280;3632;42.724;23.298;2023-08-24T10:52:30;95408.81;;;32.40;42.13
7182;BME280;3632;42.724;23.298;2023-08-24T10:54:56;95371.28;;;31.74;43.15
7182;BME280;3632;42.724;23.298;2023-08-24T10:57:25;95391.84;;;31.72;43.66
7182;BME280;3632;42.724;23.298;2023-08-24T11:00:01;95362.47;;;31.37;44.47
7182;BME280;3632;42.724;23.298;2023-08-24T11:02:41;95389.19;;;31.24;42.77
7182;BME280;3632;42.724;23.298;2023-08-24T11:05:15;95382.94;;;31.08;42.92
7182;BME280;3632;42.724;23.298;2023-08-24T11:07:53;95371.50;;;30.81;42.54
7182;BME280;3632;42.724;23.298;2023-08-24T11:10:21;95300.44;;;30.21;42.61
7182;BME280;3632;42.724;23.298;2023-08-24T11:13:07;95371.19;;;30.77;43.19
7182;BME280;3632;42.724;23.298;2023-08-24T11:15:38;95372.06;;;30.83;43.01
7182;BME280;3632;42.724;23.298;2023-08-24T11:18:22;95371.75;;;30.79;42.38
7182;BME280;3632;42.724;23.298;2023-08-24T11:20:52;95377.63;;;30.87;43.04
7182;BME280;3632;42.724;23.298;2023-08-24T11:23:21;95373.16;;;30.87;43.32
7182;BME280;3632;42.724;23.298;2023-08-24T11:25:49;95378.00;;;30.95;43.11
7182;BME280;3632;42.724;23.298;2023-08-24T11:28:22;95383.38;;;31.00;42.96
7182;BME280;3632;42.724;23.298;2023-08-24T11:30:50;95329.41;;;30.59;42.52
7182;BME280;3632;42.724;23.298;2023-08-24T11:33:27;95332.69;;;30.33;43.23
7182;BME280;3632;42.724;23.298;2023-08-24T11:35:56;95345.97;;;30.26;44.03
7182;BME280;3632;42.724;23.298;2023-08-24T11:38:23;95345.03;;;30.32;43.82
7182;BME280;3632;42.724;23.298;2023-08-24T11:40:50;95386.63;;;30.52;44.60
7182;BME280;3632;42.724;23.298;2023-08-24T11:43:23;95382.78;;;30.26;46.27
7182;BME280;3632;42.724;23.298;2023-08-24T11:45:50;95386.47;;;30.42;46.19
7182;BME280;3632;42.724;23.298;2023-08-24T11:48:18;95383.78;;;30.20;46.97
7182;BME280;3632;42.724;23.298;2023-08-24T11:50:46;95380.13;;;30.21;47.42
7182;BME280;3632;42.724;23.298;2023-08-24T11:53:13;95382.41;;;30.01;48.94
7182;BME280;3632;42.724;23.298;2023-08-24T11:55:40;95353.75;;;29.71;50.00
7182;BME280;3632;42.724;23.298;2023-08-24T11:58:13;95379.41;;;29.81;50.40
7182;BME280;3632;42.724;23.298;2023-08-24T12:00:41;95344.97;;;29.49;51.12
7182;BME280;3632;42.724;23.298;2023-08-24T12:03:08;95370.88;;;29.45;52.41
7182;BME280;3632;42.724;23.298;2023-08-24T12:05:36;95364.84;;;29.45;52.56
7182;BME280;3632;42.724;23.298;2023-08-24T12:08:03;95356.69;;;29.30;52.94
7182;BME280;3632;42.724;23.298;2023-08-24T12:10:30;95348.94;;;29.23;53.96
7182;BME280;3632;42.724;23.298;2023-08-24T12:13:04;95333.25;;;29.28;53.90
7182;BME280;3632;42.724;23.298;2023-08-24T12:15:34;95331.88;;;29.37;53.63
7182;BME280;3632;42.724;23.298;2023-08-24T12:18:07;95275.81;;;29.15;53.24
7182;BME280;3632;42.724;23.298;2023-08-24T12:20:34;95332.25;;;29.58;53.36
7182;BME280;3632;42.724;23.298;2023-08-24T12:23:02;95330.25;;;29.48;53.27
7182;BME280;3632;42.724;23.298;2023-08-24T12:25:29;95258.47;;;28.74;53.64
7182;BME280;3632;42.724;23.298;2023-08-24T12:28:08;95335.69;;;29.18;54.11
7182;BME280;3632;42.724;23.298;2023-08-24T12:30:46;95355.84;;;29.01;54.66
7182;BME280;3632;42.724;23.298;2023-08-24T12:33:24;95344.91;;;28.92;55.14
7182;BME280;3632;42.724;23.298;2023-08-24T12:35:51;95309.56;;;28.83;54.67
7182;BME280;3632;42.724;23.298;2023-08-24T12:38:19;95075.34;;;27.51;54.81
7182;BME280;3632;42.724;23.298;2023-08-24T12:40:46;95197.72;;;28.02;54.41
7182;BME280;3632;42.724;23.298;2023-08-24T12:43:12;95363.38;;;29.66;54.21
7182;BME280;3632;42.724;23.298;2023-08-24T12:45:39;95033.69;;;27.38;54.19
7182;BME280;3632;42.724;23.298;2023-08-24T12:48:06;95366.34;;;29.86;53.48
7182;BME280;3632;42.724;23.298;2023-08-24T12:50:33;95355.84;;;29.86;53.43
7182;BME280;3632;42.724;23.298;2023-08-24T12:53:00;95369.22;;;29.84;52.91
7182;BME280;3632;42.724;23.298;2023-08-24T12:55:29;95422.03;;;29.83;54.63
7182;BME280;3632;42.724;23.298;2023-08-24T12:57:56;95374.38;;;29.91;52.10
7182;BME280;3632;42.724;23.298;2023-08-24T13:00:23;95365.59;;;30.02;51.20
7182;BME280;3632;42.724;23.298;2023-08-24T13:02:50;95346.47;;;29.90;51.14
7182;BME280;3632;42.724;23.298;2023-08-24T13:05:17;95236.09;;;29.40;51.65
7182;BME280;3632;42.724;23.298;2023-08-24T13:07:44;95215.69;;;29.30;50.95
7182;BME280;3632;42.724;23.298;2023-08-24T13:10:10;95367.66;;;30.33;50.69
7182;BME280;3632;42.724;23.298;2023-08-24T13:12:39;95374.50;;;30.18;51.94
7182;BME280;3632;42.724;23.298;2023-08-24T13:15:07;95370.53;;;29.99;51.46